sensor_id;sensor_type;location;lat;lon;timestamp;temperature;humidity
5130;DHT22;2583;50.946;6.954;2022-09-28T00:00:42;10.20;99.90
5130;DHT22;2583;50.946;6.954;2022-09-28T00:03:12;10.10;99.90
5130;DHT22;2583;50.946;6.954;2022-09-28T00:05:39;10.10;99.90
5130;DHT22;2583;50.946;6.954;2022-09-28T00:08:06;10.10;99.90
5130;DHT22;2583;50.946;6.954;2022-09-28T00:10:33;10.10;99.90
5130;DHT22;2583;50.946;6.954;2022-09-28T00:13:00;10.10;99.90
5130;DHT22;2583;50.946;6.954;2022-09-28T00:15:27;10.10;99.90
5130;DHT22;2583;50.946;6.954;2022-09-28T00:17:54;10.00;99.90
5130;DHT22;2583;50.946;6.954;2022-09-28T00:20:21;10.00;99.90
5130;DHT22;2583;50.946;6.954;2022-09-28T00:22:48;10.00;99.90
5130;DHT22;2583;50.946;6.954;2022-09-28T00:25:15;10.00;99.90
5130;DHT22;2583;50.946;6.954;2022-09-28T00:27:42;10.10;99.90
5130;DHT22;2583;50.946;6.954;2022-09-28T00:30:14;10.10;99.90
5130;DHT22;2583;50.946;6.954;2022-09-28T00:32:42;10.00;99.90
5130;DHT22;2583;50.946;6.954;2022-09-28T00:35:08;10.10;99.90
5130;DHT22;2583;50.946;6.954;2022-09-28T00:37:35;10.00;99.90
5130;DHT22;2583;50.946;6.954;2022-09-28T00:40:02;10.00;99.90
5130;DHT22;2583;50.946;6.954;2022-09-28T00:42:29;10.00;99.90
5130;DHT22;2583;50.946;6.954;2022-09-28T00:44:57;10.00;99.90
5130;DHT22;2583;50.946;6.954;2022-09-28T00:52:54;10.00;99.90
5130;DHT22;2583;50.946;6.954;2022-09-28T00:55:49;10.00;99.90
5130;DHT22;2583;50.946;6.954;2022-09-28T00:58:27;10.00;99.90
5130;DHT22;2583;50.946;6.954;2022-09-28T01:00:56;9.90;99.90
5130;DHT22;2583;50.946;6.954;2022-09-28T01:03:24;9.90;99.90
5130;DHT22;2583;50.946;6.954;2022-09-28T01:05:52;9.90;99.90
5130;DHT22;2583;50.946;6.954;2022-09-28T01:08:21;9.90;99.90
5130;DHT22;2583;50.946;6.954;2022-09-28T01:10:49;9.90;99.90
5130;DHT22;2583;50.946;6.954;2022-09-28T01:13:17;10.00;99.90
5130;DHT22;2583;50.946;6.954;2022-09-28T01:15:58;9.90;99.90
5130;DHT22;2583;50.946;6.954;2022-09-28T01:21:18;9.90;99.90
5130;DHT22;2583;50.946;6.954;2022-09-28T01:24:07;9.90;99.90
5130;DHT22;2583;50.946;6.954;2022-09-28T01:26:49;9.90;99.90
5130;DHT22;2583;50.946;6.954;2022-09-28T01:32:14;9.90;99.90
5130;DHT22;2583;50.946;6.954;2022-09-28T01:35:05;9.90;99.90
5130;DHT22;2583;50.946;6.954;2022-09-28T01:38:01;9.80;99.90
5130;DHT22;2583;50.946;6.954;2022-09-28T01:40:29;9.80;99.90
5130;DHT22;2583;50.946;6.954;2022-09-28T01:43:02;9.90;99.90
5130;DHT22;2583;50.946;6.954;2022-09-28T01:45:35;9.90;99.90
5130;DHT22;2583;50.946;6.954;2022-09-28T01:48:06;9.80;99.90
5130;DHT22;2583;50.946;6.954;2022-09-28T01:50:39;9.90;99.90
5130;DHT22;2583;50.946;6.954;2022-09-28T01:53:18;9.90;99.90
5130;DHT22;2583;50.946;6.954;2022-09-28T01:55:55;9.90;99.90
5130;DHT22;2583;50.946;6.954;2022-09-28T01:58:38;9.90;99.90
5130;DHT22;2583;50.946;6.954;2022-09-28T02:01:10;9.90;99.90
5130;DHT22;2583;50.946;6.954;2022-09-28T02:04:02;9.90;99.90
5130;DHT22;2583;50.946;6.954;2022-09-28T02:06:35;9.90;99.90
5130;DHT22;2583;50.946;6.954;2022-09-28T02:09:10;9.90;99.90
5130;DHT22;2583;50.946;6.954;2022-09-28T02:11:44;9.90;99.90
5130;DHT22;2583;50.946;6.954;2022-09-28T02:14:12;9.90;99.90
5130;DHT22;2583;50.946;6.954;2022-09-28T02:16:45;9.90;99.90
5130;DHT22;2583;50.946;6.954;2022-09-28T02:19:22;9.90;99.90
5130;DHT22;2583;50.946;6.954;2022-09-28T02:24:46;9.90;99.90
5130;DHT22;2583;50.946;6.954;2022-09-28T02:30:10;9.90;99.90
5130;DHT22;2583;50.946;6.954;2022-09-28T02:32:41;9.90;99.90
5130;DHT22;2583;50.946;6.954;2022-09-28T02:35:15;10.00;99.90
5130;DHT22;2583;50.946;6.954;2022-09-28T02:37:43;9.90;99.90
5130;DHT22;2583;50.946;6.954;2022-09-28T02:40:29;9.90;99.90
5130;DHT22;2583;50.946;6.954;2022-09-28T02:43:22;9.90;99.90
5130;DHT22;2583;50.946;6.954;2022-09-28T02:45:58;9.90;99.90
5130;DHT22;2583;50.946;6.954;2022-09-28T03:02:07;10.00;99.90
5130;DHT22;2583;50.946;6.954;2022-09-28T03:04:43;10.00;99.90
5130;DHT22;2583;50.946;6.954;2022-09-28T03:07:28;10.10;99.90
5130;DHT22;2583;50.946;6.954;2022-09-28T03:10:11;10.10;99.90
5130;DHT22;2583;50.946;6.954;2022-09-28T03:12:40;10.10;99.90
5130;DHT22;2583;50.946;6.954;2022-09-28T03:17:36;10.10;99.90
5130;DHT22;2583;50.946;6.954;2022-09-28T03:20:04;10.10;99.90
5130;DHT22;2583;50.946;6.954;2022-09-28T03:22:31;10.10;99.90
5130;DHT22;2583;50.946;6.954;2022-09-28T03:24:57;10.20;99.90
5130;DHT22;2583;50.946;6.954;2022-09-28T03:27:24;10.10;99.90
5130;DHT22;2583;50.946;6.954;2022-09-28T03:29:51;10.10;99.90
5130;DHT22;2583;50.946;6.954;2022-09-28T03:32:17;10.20;99.90
5130;DHT22;2583;50.946;6.954;2022-09-28T03:34:44;10.20;99.90
5130;DHT22;2583;50.946;6.954;2022-09-28T03:37:11;10.20;99.90
5130;DHT22;2583;50.946;6.954;2022-09-28T03:39:38;10.30;99.90
5130;DHT22;2583;50.946;6.954;2022-09-28T03:42:05;10.20;99.90
5130;DHT22;2583;50.946;6.954;2022-09-28T03:44:31;10.20;99.90
5130;DHT22;2583;50.946;6.954;2022-09-28T03:46:58;10.20;99.90
5130;DHT22;2583;50.946;6.954;2022-09-28T03:49:25;10.30;99.90
5130;DHT22;2583;50.946;6.954;2022-09-28T03:51:52;10.30;99.90
5130;DHT22;2583;50.946;6.954;2022-09-28T03:54:19;10.30;99.90
5130;DHT22;2583;50.946;6.954;2022-09-28T03:56:45;10.30;99.90
5130;DHT22;2583;50.946;6.954;2022-09-28T03:59:12;10.30;99.90
5130;DHT22;2583;50.946;6.954;2022-09-28T04:01:39;10.20;99.90
5130;DHT22;2583;50.946;6.954;2022-09-28T04:04:06;10.20;99.90
5130;DHT22;2583;50.946;6.954;2022-09-28T04:06:33;10.20;99.90
5130;DHT22;2583;50.946;6.954;2022-09-28T04:08:59;10.30;99.90
5130;DHT22;2583;50.946;6.954;2022-09-28T04:11:26;10.20;99.90
5130;DHT22;2583;50.946;6.954;2022-09-28T04:14:09;10.20;99.90
5130;DHT22;2583;50.946;6.954;2022-09-28T04:16:37;10.10;99.90
5130;DHT22;2583;50.946;6.954;2022-09-28T04:19:04;10.10;99.90
5130;DHT22;2583;50.946;6.954;2022-09-28T04:21:30;10.00;99.90
5130;DHT22;2583;50.946;6.954;2022-09-28T04:23:57;10.00;99.90
5130;DHT22;2583;50.946;6.954;2022-09-28T04:26:26;9.90;99.90
5130;DHT22;2583;50.946;6.954;2022-09-28T04:28:53;9.90;99.90
5130;DHT22;2583;50.946;6.954;2022-09-28T04:31:46;10.00;99.90
5130;DHT22;2583;50.946;6.954;2022-09-28T04:34:17;10.10;99.90
5130;DHT22;2583;50.946;6.954;2022-09-28T04:36:44;10.10;99.90
5130;DHT22;2583;50.946;6.954;2022-09-28T04:39:12;10.10;99.90
5130;DHT22;2583;50.946;6.954;2022-09-28T04:41:40;10.10;99.90
5130;DHT22;2583;50.946;6.954;2022-09-28T04:44:07;10.00;99.90
5130;DHT22;2583;50.946;6.954;2022-09-28T04:46:35;10.10;99.90
5130;DHT22;2583;50.946;6.954;2022-09-28T04:49:02;10.10;99.90
5130;DHT22;2583;50.946;6.954;2022-09-28T04:51:32;10.10;99.90
5130;DHT22;2583;50.946;6.954;2022-09-28T04:53:59;10.10;99.90
5130;DHT22;2583;50.946;6.954;2022-09-28T04:56:25;10.10;99.90
5130;DHT22;2583;50.946;6.954;2022-09-28T04:58:52;10.10;99.90
5130;DHT22;2583;50.946;6.954;2022-09-28T05:01:19;10.10;99.90
5130;DHT22;2583;50.946;6.954;2022-09-28T05:03:49;10.10;99.90
5130;DHT22;2583;50.946;6.954;2022-09-28T05:06:19;10.20;99.90
5130;DHT22;2583;50.946;6.954;2022-09-28T05:08:48;10.20;99.90
5130;DHT22;2583;50.946;6.954;2022-09-28T05:11:17;10.20;99.90
5130;DHT22;2583;50.946;6.954;2022-09-28T05:13:45;10.20;99.90
5130;DHT22;2583;50.946;6.954;2022-09-28T05:16:14;10.20;99.90
5130;DHT22;2583;50.946;6.954;2022-09-28T05:18:42;10.20;99.90
5130;DHT22;2583;50.946;6.954;2022-09-28T05:21:10;10.20;99.90
5130;DHT22;2583;50.946;6.954;2022-09-28T05:23:39;10.20;99.90
5130;DHT22;2583;50.946;6.954;2022-09-28T05:26:06;10.10;99.90
5130;DHT22;2583;50.946;6.954;2022-09-28T05:28:32;10.20;99.90
5130;DHT22;2583;50.946;6.954;2022-09-28T05:31:00;10.20;99.90
5130;DHT22;2583;50.946;6.954;2022-09-28T05:33:28;10.20;99.90
5130;DHT22;2583;50.946;6.954;2022-09-28T05:35:55;10.20;99.90
5130;DHT22;2583;50.946;6.954;2022-09-28T05:38:27;10.10;99.90
5130;DHT22;2583;50.946;6.954;2022-09-28T05:40:54;10.10;99.90
5130;DHT22;2583;50.946;6.954;2022-09-28T05:43:22;10.10;99.90
5130;DHT22;2583;50.946;6.954;2022-09-28T05:45:49;10.20;99.90
5130;DHT22;2583;50.946;6.954;2022-09-28T05:48:21;10.20;99.90
5130;DHT22;2583;50.946;6.954;2022-09-28T05:50:51;10.20;99.90
5130;DHT22;2583;50.946;6.954;2022-09-28T05:53:18;10.20;99.90
5130;DHT22;2583;50.946;6.954;2022-09-28T05:55:45;10.20;99.90
5130;DHT22;2583;50.946;6.954;2022-09-28T05:58:12;10.20;99.90
5130;DHT22;2583;50.946;6.954;2022-09-28T06:00:39;10.30;99.90
5130;DHT22;2583;50.946;6.954;2022-09-28T06:03:10;10.20;99.90
5130;DHT22;2583;50.946;6.954;2022-09-28T06:05:37;10.20;99.90
5130;DHT22;2583;50.946;6.954;2022-09-28T06:08:08;10.30;99.90
5130;DHT22;2583;50.946;6.954;2022-09-28T06:10:38;10.30;99.90
5130;DHT22;2583;50.946;6.954;2022-09-28T06:13:06;10.20;99.90
5130;DHT22;2583;50.946;6.954;2022-09-28T06:15:34;10.30;99.90
5130;DHT22;2583;50.946;6.954;2022-09-28T06:18:07;10.20;99.90
5130;DHT22;2583;50.946;6.954;2022-09-28T06:20:37;10.20;99.90
5130;DHT22;2583;50.946;6.954;2022-09-28T06:23:10;10.30;99.90
5130;DHT22;2583;50.946;6.954;2022-09-28T06:25:38;10.20;99.90
5130;DHT22;2583;50.946;6.954;2022-09-28T06:28:10;10.30;99.90
5130;DHT22;2583;50.946;6.954;2022-09-28T06:30:38;10.30;99.90
5130;DHT22;2583;50.946;6.954;2022-09-28T06:33:06;10.30;99.90
5130;DHT22;2583;50.946;6.954;2022-09-28T06:35:34;10.30;99.90
5130;DHT22;2583;50.946;6.954;2022-09-28T06:38:01;10.30;99.90
5130;DHT22;2583;50.946;6.954;2022-09-28T06:40:28;10.20;99.90
5130;DHT22;2583;50.946;6.954;2022-09-28T06:43:09;10.20;99.90
5130;DHT22;2583;50.946;6.954;2022-09-28T06:45:37;10.20;99.90
5130;DHT22;2583;50.946;6.954;2022-09-28T06:48:05;10.20;99.90
5130;DHT22;2583;50.946;6.954;2022-09-28T06:50:37;10.20;99.90
5130;DHT22;2583;50.946;6.954;2022-09-28T06:53:06;10.20;99.90
5130;DHT22;2583;50.946;6.954;2022-09-28T06:55:38;10.30;99.90
5130;DHT22;2583;50.946;6.954;2022-09-28T06:58:08;10.30;99.90
5130;DHT22;2583;50.946;6.954;2022-09-28T07:00:37;10.40;99.90
5130;DHT22;2583;50.946;6.954;2022-09-28T07:03:13;10.40;99.90
5130;DHT22;2583;50.946;6.954;2022-09-28T07:05:48;10.40;99.90
5130;DHT22;2583;50.946;6.954;2022-09-28T07:08:16;10.40;99.90
5130;DHT22;2583;50.946;6.954;2022-09-28T07:10:44;10.50;99.90
5130;DHT22;2583;50.946;6.954;2022-09-28T07:13:12;10.40;99.90
5130;DHT22;2583;50.946;6.954;2022-09-28T07:15:59;10.50;99.90
5130;DHT22;2583;50.946;6.954;2022-09-28T07:18:26;10.60;99.90
5130;DHT22;2583;50.946;6.954;2022-09-28T07:20:55;10.50;99.90
5130;DHT22;2583;50.946;6.954;2022-09-28T07:23:25;10.50;99.90
5130;DHT22;2583;50.946;6.954;2022-09-28T07:25:56;10.60;99.90
5130;DHT22;2583;50.946;6.954;2022-09-28T07:28:24;10.60;99.90
5130;DHT22;2583;50.946;6.954;2022-09-28T07:30:50;10.60;99.90
5130;DHT22;2583;50.946;6.954;2022-09-28T07:33:17;10.70;99.90
5130;DHT22;2583;50.946;6.954;2022-09-28T07:35:54;10.70;99.90
5130;DHT22;2583;50.946;6.954;2022-09-28T07:38:21;10.70;99.90
5130;DHT22;2583;50.946;6.954;2022-09-28T07:40:49;10.80;99.90
5130;DHT22;2583;50.946;6.954;2022-09-28T07:43:34;10.80;99.90
5130;DHT22;2583;50.946;6.954;2022-09-28T07:46:01;10.90;99.90
5130;DHT22;2583;50.946;6.954;2022-09-28T07:48:29;10.90;99.90
5130;DHT22;2583;50.946;6.954;2022-09-28T07:51:03;10.90;99.90
5130;DHT22;2583;50.946;6.954;2022-09-28T07:53:30;11.00;99.90
5130;DHT22;2583;50.946;6.954;2022-09-28T07:55:59;11.00;99.90
5130;DHT22;2583;50.946;6.954;2022-09-28T07:58:37;11.10;99.90
5130;DHT22;2583;50.946;6.954;2022-09-28T08:01:09;11.20;99.90
5130;DHT22;2583;50.946;6.954;2022-09-28T08:03:38;11.30;99.90
5130;DHT22;2583;50.946;6.954;2022-09-28T08:06:06;11.30;99.90
5130;DHT22;2583;50.946;6.954;2022-09-28T08:08:38;11.40;99.90
5130;DHT22;2583;50.946;6.954;2022-09-28T08:11:11;11.50;99.90
5130;DHT22;2583;50.946;6.954;2022-09-28T08:13:39;11.70;99.90
5130;DHT22;2583;50.946;6.954;2022-09-28T08:16:06;11.80;99.90
5130;DHT22;2583;50.946;6.954;2022-09-28T08:18:35;11.80;99.90
5130;DHT22;2583;50.946;6.954;2022-09-28T08:21:03;11.70;99.90
5130;DHT22;2583;50.946;6.954;2022-09-28T08:23:50;11.70;99.90
5130;DHT22;2583;50.946;6.954;2022-09-28T08:26:17;11.70;99.90
5130;DHT22;2583;50.946;6.954;2022-09-28T08:28:44;11.80;99.90
5130;DHT22;2583;50.946;6.954;2022-09-28T08:31:13;11.80;99.90
5130;DHT22;2583;50.946;6.954;2022-09-28T08:33:41;11.90;99.90
5130;DHT22;2583;50.946;6.954;2022-09-28T08:36:09;11.90;99.90
5130;DHT22;2583;50.946;6.954;2022-09-28T08:38:36;11.90;99.90
5130;DHT22;2583;50.946;6.954;2022-09-28T08:41:33;11.90;99.90
5130;DHT22;2583;50.946;6.954;2022-09-28T08:44:16;12.00;99.90
5130;DHT22;2583;50.946;6.954;2022-09-28T08:46:59;12.10;99.90
5130;DHT22;2583;50.946;6.954;2022-09-28T08:49:37;12.10;99.90
5130;DHT22;2583;50.946;6.954;2022-09-28T08:52:22;12.30;99.90
5130;DHT22;2583;50.946;6.954;2022-09-28T08:55:35;12.30;99.90
5130;DHT22;2583;50.946;6.954;2022-09-28T08:58:15;12.30;99.90
5130;DHT22;2583;50.946;6.954;2022-09-28T09:00:49;12.30;99.90
5130;DHT22;2583;50.946;6.954;2022-09-28T09:03:36;12.20;99.90
5130;DHT22;2583;50.946;6.954;2022-09-28T09:17:42;12.60;99.90
5130;DHT22;2583;50.946;6.954;2022-09-28T09:23:00;12.70;99.90
5130;DHT22;2583;50.946;6.954;2022-09-28T09:25:39;12.70;99.90
5130;DHT22;2583;50.946;6.954;2022-09-28T09:28:38;12.60;99.90
5130;DHT22;2583;50.946;6.954;2022-09-28T09:34:47;12.90;99.90
5130;DHT22;2583;50.946;6.954;2022-09-28T09:39:34;13.00;99.90
5130;DHT22;2583;50.946;6.954;2022-09-28T09:47:40;13.30;99.90
5130;DHT22;2583;50.946;6.954;2022-09-28T09:55:50;13.30;99.90
5130;DHT22;2583;50.946;6.954;2022-09-28T09:58:42;13.50;99.90
5130;DHT22;2583;50.946;6.954;2022-09-28T10:01:14;13.70;97.60
5130;DHT22;2583;50.946;6.954;2022-09-28T10:03:46;13.60;97.30
5130;DHT22;2583;50.946;6.954;2022-09-28T10:06:15;13.70;97.40
5130;DHT22;2583;50.946;6.954;2022-09-28T10:08:48;13.70;95.40
5130;DHT22;2583;50.946;6.954;2022-09-28T10:11:26;13.60;95.70
5130;DHT22;2583;50.946;6.954;2022-09-28T10:13:55;13.80;96.60
5130;DHT22;2583;50.946;6.954;2022-09-28T10:16:23;13.80;95.80
5130;DHT22;2583;50.946;6.954;2022-09-28T10:18:51;13.80;92.00
5130;DHT22;2583;50.946;6.954;2022-09-28T10:21:20;13.90;94.10
5130;DHT22;2583;50.946;6.954;2022-09-28T10:23:55;13.90;95.10
5130;DHT22;2583;50.946;6.954;2022-09-28T10:26:39;13.80;91.40
5130;DHT22;2583;50.946;6.954;2022-09-28T10:29:16;13.90;92.90
5130;DHT22;2583;50.946;6.954;2022-09-28T10:31:47;13.90;91.60
5130;DHT22;2583;50.946;6.954;2022-09-28T10:34:16;13.90;92.00
5130;DHT22;2583;50.946;6.954;2022-09-28T10:36:54;13.80;90.90
5130;DHT22;2583;50.946;6.954;2022-09-28T10:39:50;13.70;91.40
5130;DHT22;2583;50.946;6.954;2022-09-28T10:42:25;13.70;88.10
5130;DHT22;2583;50.946;6.954;2022-09-28T10:45:19;13.90;87.60
5130;DHT22;2583;50.946;6.954;2022-09-28T10:47:48;14.10;75.80
5130;DHT22;2583;50.946;6.954;2022-09-28T10:50:24;14.30;80.90
5130;DHT22;2583;50.946;6.954;2022-09-28T10:52:52;14.60;74.30
5130;DHT22;2583;50.946;6.954;2022-09-28T10:55:30;14.60;73.20
5130;DHT22;2583;50.946;6.954;2022-09-28T10:58:21;14.70;70.80
5130;DHT22;2583;50.946;6.954;2022-09-28T11:00:50;14.50;65.50
5130;DHT22;2583;50.946;6.954;2022-09-28T11:03:19;14.60;65.90
5130;DHT22;2583;50.946;6.954;2022-09-28T11:05:53;14.50;67.90
5130;DHT22;2583;50.946;6.954;2022-09-28T11:08:25;14.50;67.40
5130;DHT22;2583;50.946;6.954;2022-09-28T11:11:07;14.50;73.70
5130;DHT22;2583;50.946;6.954;2022-09-28T11:13:41;14.30;68.90
5130;DHT22;2583;50.946;6.954;2022-09-28T11:16:25;14.20;73.60
5130;DHT22;2583;50.946;6.954;2022-09-28T11:18:53;14.20;76.50
5130;DHT22;2583;50.946;6.954;2022-09-28T11:21:28;14.20;80.70
5130;DHT22;2583;50.946;6.954;2022-09-28T11:24:03;14.30;74.70
5130;DHT22;2583;50.946;6.954;2022-09-28T11:26:38;14.10;76.20
5130;DHT22;2583;50.946;6.954;2022-09-28T11:29:22;14.30;73.70
5130;DHT22;2583;50.946;6.954;2022-09-28T11:31:59;14.40;71.90
5130;DHT22;2583;50.946;6.954;2022-09-28T11:34:36;14.50;70.20
5130;DHT22;2583;50.946;6.954;2022-09-28T11:43:12;14.60;68.80
5130;DHT22;2583;50.946;6.954;2022-09-28T11:48:48;14.60;68.80
5130;DHT22;2583;50.946;6.954;2022-09-28T11:51:21;14.60;63.50
5130;DHT22;2583;50.946;6.954;2022-09-28T11:53:54;14.70;70.50
5130;DHT22;2583;50.946;6.954;2022-09-28T11:59:25;14.80;74.70
5130;DHT22;2583;50.946;6.954;2022-09-28T12:04:51;14.60;73.90
5130;DHT22;2583;50.946;6.954;2022-09-28T12:07:39;14.50;65.70
5130;DHT22;2583;50.946;6.954;2022-09-28T12:10:42;14.50;66.20
5130;DHT22;2583;50.946;6.954;2022-09-28T12:13:21;14.60;68.40
5130;DHT22;2583;50.946;6.954;2022-09-28T12:24:20;14.70;64.60
5130;DHT22;2583;50.946;6.954;2022-09-28T12:27:03;14.70;64.90
5130;DHT22;2583;50.946;6.954;2022-09-28T12:34:55;14.70;64.60
5130;DHT22;2583;50.946;6.954;2022-09-28T12:37:33;14.60;68.30
5130;DHT22;2583;50.946;6.954;2022-09-28T12:40:51;14.50;70.30
5130;DHT22;2583;50.946;6.954;2022-09-28T12:43:14;14.50;70.90
5130;DHT22;2583;50.946;6.954;2022-09-28T12:46:07;14.60;70.40
5130;DHT22;2583;50.946;6.954;2022-09-28T12:59:34;15.00;63.20
5130;DHT22;2583;50.946;6.954;2022-09-28T13:08:21;15.40;58.10
5130;DHT22;2583;50.946;6.954;2022-09-28T13:11:31;15.30;55.50
5130;DHT22;2583;50.946;6.954;2022-09-28T13:17:04;15.30;56.40
5130;DHT22;2583;50.946;6.954;2022-09-28T13:25:06;15.30;56.10
5130;DHT22;2583;50.946;6.954;2022-09-28T13:27:40;15.30;56.80
5130;DHT22;2583;50.946;6.954;2022-09-28T13:30:12;15.40;55.20
5130;DHT22;2583;50.946;6.954;2022-09-28T13:32:41;15.30;55.80
5130;DHT22;2583;50.946;6.954;2022-09-28T13:35:16;15.30;55.90
5130;DHT22;2583;50.946;6.954;2022-09-28T13:37:47;15.20;55.40
5130;DHT22;2583;50.946;6.954;2022-09-28T13:43:58;15.00;58.20
5130;DHT22;2583;50.946;6.954;2022-09-28T13:55:40;14.60;91.20
5130;DHT22;2583;50.946;6.954;2022-09-28T13:58:31;14.50;94.90
5130;DHT22;2583;50.946;6.954;2022-09-28T14:04:16;14.40;99.50
5130;DHT22;2583;50.946;6.954;2022-09-28T14:10:20;14.80;99.90
5130;DHT22;2583;50.946;6.954;2022-09-28T14:12:50;14.90;92.20
5130;DHT22;2583;50.946;6.954;2022-09-28T14:18:11;15.20;82.30
5130;DHT22;2583;50.946;6.954;2022-09-28T14:20:54;15.30;73.50
5130;DHT22;2583;50.946;6.954;2022-09-28T14:29:31;15.00;60.70
5130;DHT22;2583;50.946;6.954;2022-09-28T14:34:39;14.90;84.20
5130;DHT22;2583;50.946;6.954;2022-09-28T14:37:30;14.70;85.00
5130;DHT22;2583;50.946;6.954;2022-09-28T14:43:23;14.50;83.20
5130;DHT22;2583;50.946;6.954;2022-09-28T14:54:00;14.30;90.00
5130;DHT22;2583;50.946;6.954;2022-09-28T14:56:37;14.30;97.60
5130;DHT22;2583;50.946;6.954;2022-09-28T14:59:05;14.20;97.30
5130;DHT22;2583;50.946;6.954;2022-09-28T15:01:33;14.20;93.60
5130;DHT22;2583;50.946;6.954;2022-09-28T15:04:03;14.10;97.10
5130;DHT22;2583;50.946;6.954;2022-09-28T15:06:49;14.00;97.70
5130;DHT22;2583;50.946;6.954;2022-09-28T15:09:36;13.80;99.90
5130;DHT22;2583;50.946;6.954;2022-09-28T15:14:48;13.70;99.10
5130;DHT22;2583;50.946;6.954;2022-09-28T15:17:19;13.40;99.40
5130;DHT22;2583;50.946;6.954;2022-09-28T15:20:25;13.20;99.90
5130;DHT22;2583;50.946;6.954;2022-09-28T15:22:57;13.20;99.90
5130;DHT22;2583;50.946;6.954;2022-09-28T15:25:29;13.00;99.90
5130;DHT22;2583;50.946;6.954;2022-09-28T15:27:59;13.10;99.90
5130;DHT22;2583;50.946;6.954;2022-09-28T15:30:33;13.00;99.90
5130;DHT22;2583;50.946;6.954;2022-09-28T15:33:02;13.00;99.90
5130;DHT22;2583;50.946;6.954;2022-09-28T15:35:58;13.00;99.90
5130;DHT22;2583;50.946;6.954;2022-09-28T15:38:28;13.00;99.90
5130;DHT22;2583;50.946;6.954;2022-09-28T15:40:57;13.10;99.90
5130;DHT22;2583;50.946;6.954;2022-09-28T15:43:28;13.20;99.90
5130;DHT22;2583;50.946;6.954;2022-09-28T15:46:09;13.30;99.90
5130;DHT22;2583;50.946;6.954;2022-09-28T15:51:18;13.20;99.90
5130;DHT22;2583;50.946;6.954;2022-09-28T15:56:24;13.20;99.90
5130;DHT22;2583;50.946;6.954;2022-09-28T16:01:43;13.20;99.90
5130;DHT22;2583;50.946;6.954;2022-09-28T16:17:33;13.30;99.90
5130;DHT22;2583;50.946;6.954;2022-09-28T16:20:03;13.20;99.90
5130;DHT22;2583;50.946;6.954;2022-09-28T16:22:30;13.20;99.90
5130;DHT22;2583;50.946;6.954;2022-09-28T16:25:00;13.20;99.90
5130;DHT22;2583;50.946;6.954;2022-09-28T16:27:41;13.00;99.90
5130;DHT22;2583;50.946;6.954;2022-09-28T16:38:02;12.60;99.90
5130;DHT22;2583;50.946;6.954;2022-09-28T16:40:31;12.60;99.90
5130;DHT22;2583;50.946;6.954;2022-09-28T16:43:00;12.50;99.90
5130;DHT22;2583;50.946;6.954;2022-09-28T16:45:28;12.50;99.90
5130;DHT22;2583;50.946;6.954;2022-09-28T16:47:58;12.50;99.90
5130;DHT22;2583;50.946;6.954;2022-09-28T16:50:27;12.40;99.90
5130;DHT22;2583;50.946;6.954;2022-09-28T16:53:05;12.40;99.90
5130;DHT22;2583;50.946;6.954;2022-09-28T16:55:55;12.40;99.90
5130;DHT22;2583;50.946;6.954;2022-09-28T16:58:23;12.30;99.90
5130;DHT22;2583;50.946;6.954;2022-09-28T17:00:51;12.30;99.90
5130;DHT22;2583;50.946;6.954;2022-09-28T17:03:20;12.20;99.90
5130;DHT22;2583;50.946;6.954;2022-09-28T17:05:49;12.20;99.90
5130;DHT22;2583;50.946;6.954;2022-09-28T17:08:19;12.20;99.90
5130;DHT22;2583;50.946;6.954;2022-09-28T17:10:55;12.10;99.90
5130;DHT22;2583;50.946;6.954;2022-09-28T17:13:43;12.00;99.90
5130;DHT22;2583;50.946;6.954;2022-09-28T17:18:38;12.00;99.90
5130;DHT22;2583;50.946;6.954;2022-09-28T17:21:09;12.00;99.90
5130;DHT22;2583;50.946;6.954;2022-09-28T17:23:36;12.00;99.90
5130;DHT22;2583;50.946;6.954;2022-09-28T17:26:04;12.00;99.90
5130;DHT22;2583;50.946;6.954;2022-09-28T17:28:33;11.90;99.90
5130;DHT22;2583;50.946;6.954;2022-09-28T17:31:01;11.90;99.90
5130;DHT22;2583;50.946;6.954;2022-09-28T17:33:28;11.90;99.90
5130;DHT22;2583;50.946;6.954;2022-09-28T17:35:59;11.90;99.90
5130;DHT22;2583;50.946;6.954;2022-09-28T17:38:27;11.80;99.90
5130;DHT22;2583;50.946;6.954;2022-09-28T17:40:54;11.90;99.90
5130;DHT22;2583;50.946;6.954;2022-09-28T17:43:21;11.80;99.90
5130;DHT22;2583;50.946;6.954;2022-09-28T17:45:48;11.80;99.90
5130;DHT22;2583;50.946;6.954;2022-09-28T17:48:18;11.80;99.90
5130;DHT22;2583;50.946;6.954;2022-09-28T17:50:49;11.80;99.90
5130;DHT22;2583;50.946;6.954;2022-09-28T17:53:16;11.80;99.90
5130;DHT22;2583;50.946;6.954;2022-09-28T17:55:43;11.70;99.90
5130;DHT22;2583;50.946;6.954;2022-09-28T17:58:17;11.70;99.90
5130;DHT22;2583;50.946;6.954;2022-09-28T18:00:46;11.70;99.90
5130;DHT22;2583;50.946;6.954;2022-09-28T18:03:23;11.70;99.90
5130;DHT22;2583;50.946;6.954;2022-09-28T18:06:03;11.60;99.90
5130;DHT22;2583;50.946;6.954;2022-09-28T18:08:35;11.60;99.90
5130;DHT22;2583;50.946;6.954;2022-09-28T18:11:02;11.60;99.90
5130;DHT22;2583;50.946;6.954;2022-09-28T18:13:29;11.60;99.90
5130;DHT22;2583;50.946;6.954;2022-09-28T18:15:56;11.60;99.90
5130;DHT22;2583;50.946;6.954;2022-09-28T18:18:23;11.50;99.90
5130;DHT22;2583;50.946;6.954;2022-09-28T18:20:51;11.50;99.90
5130;DHT22;2583;50.946;6.954;2022-09-28T18:23:18;11.50;99.90
5130;DHT22;2583;50.946;6.954;2022-09-28T18:25:45;11.50;99.90
5130;DHT22;2583;50.946;6.954;2022-09-28T18:28:13;11.50;99.90
5130;DHT22;2583;50.946;6.954;2022-09-28T18:30:42;11.50;99.90
5130;DHT22;2583;50.946;6.954;2022-09-28T18:33:11;11.50;99.90
5130;DHT22;2583;50.946;6.954;2022-09-28T18:35:38;11.50;99.90
5130;DHT22;2583;50.946;6.954;2022-09-28T18:38:05;11.50;99.90
5130;DHT22;2583;50.946;6.954;2022-09-28T18:40:33;11.50;99.90
5130;DHT22;2583;50.946;6.954;2022-09-28T18:43:01;11.50;99.90
5130;DHT22;2583;50.946;6.954;2022-09-28T18:45:28;11.50;99.90
5130;DHT22;2583;50.946;6.954;2022-09-28T18:47:54;11.40;99.90
5130;DHT22;2583;50.946;6.954;2022-09-28T18:50:22;11.40;99.90
5130;DHT22;2583;50.946;6.954;2022-09-28T18:52:49;11.40;99.90
5130;DHT22;2583;50.946;6.954;2022-09-28T18:55:16;11.50;99.90
5130;DHT22;2583;50.946;6.954;2022-09-28T18:57:43;11.50;99.90
5130;DHT22;2583;50.946;6.954;2022-09-28T19:00:12;11.50;99.90
5130;DHT22;2583;50.946;6.954;2022-09-28T19:02:40;11.40;99.90
5130;DHT22;2583;50.946;6.954;2022-09-28T19:05:07;11.40;99.90
5130;DHT22;2583;50.946;6.954;2022-09-28T19:07:34;11.30;99.90
5130;DHT22;2583;50.946;6.954;2022-09-28T19:10:01;11.30;99.90
5130;DHT22;2583;50.946;6.954;2022-09-28T19:12:28;11.30;99.90
5130;DHT22;2583;50.946;6.954;2022-09-28T19:14:54;11.30;99.90
5130;DHT22;2583;50.946;6.954;2022-09-28T19:17:21;11.20;99.90
5130;DHT22;2583;50.946;6.954;2022-09-28T19:19:48;11.20;99.90
5130;DHT22;2583;50.946;6.954;2022-09-28T19:22:17;11.20;99.90
5130;DHT22;2583;50.946;6.954;2022-09-28T19:24:43;11.20;99.90
5130;DHT22;2583;50.946;6.954;2022-09-28T19:27:10;11.20;99.90
5130;DHT22;2583;50.946;6.954;2022-09-28T19:29:37;11.20;99.90
5130;DHT22;2583;50.946;6.954;2022-09-28T19:32:04;11.20;99.90
5130;DHT22;2583;50.946;6.954;2022-09-28T19:34:30;11.20;99.90
5130;DHT22;2583;50.946;6.954;2022-09-28T19:36:57;11.20;99.90
5130;DHT22;2583;50.946;6.954;2022-09-28T19:39:26;11.20;99.90
5130;DHT22;2583;50.946;6.954;2022-09-28T19:41:52;11.20;99.90
5130;DHT22;2583;50.946;6.954;2022-09-28T19:44:24;11.20;99.90
5130;DHT22;2583;50.946;6.954;2022-09-28T19:47:06;11.20;99.90
5130;DHT22;2583;50.946;6.954;2022-09-28T19:49:35;11.20;99.90